createdAt,value
2022-08-16T00:00:22.142Z,77.86
2022-08-16T00:01:10.536Z,78.06
2022-08-16T00:02:12.755Z,78.27
2022-08-16T00:03:13.216Z,78.27
2022-08-16T00:04:10.366Z,78.36
2022-08-16T00:05:09.570Z,78.36
2022-08-16T00:06:10.092Z,78.46
2022-08-16T00:07:09.476Z,78.27
2022-08-16T00:08:09.447Z,78.16
2022-08-16T00:09:10.764Z,78.27
2022-08-16T00:10:09.415Z,78.36
2022-08-16T00:11:15.690Z,78.36
2022-08-16T00:12:10.592Z,78.56
2022-08-16T00:13:09.428Z,78.56
2022-08-16T00:14:09.377Z,78.66
2022-08-16T00:15:11.702Z,78.77
2022-08-16T00:17:00.692Z,78.86
2022-08-16T00:17:19.123Z,78.86
2022-08-16T00:18:10.450Z,78.97
2022-08-16T00:19:09.336Z,78.97
2022-08-16T00:20:12.497Z,79.06
2022-08-16T00:21:09.265Z,79.06
2022-08-16T00:22:13.419Z,79.06
2022-08-16T00:23:09.256Z,79.17
2022-08-16T00:24:12.127Z,79.17
2022-08-16T00:25:09.247Z,79.06
2022-08-16T00:26:36.839Z,79.06
2022-08-16T00:27:10.203Z,79.06
2022-08-16T00:28:09.212Z,79.17
2022-08-16T00:29:09.167Z,79.17
2022-08-16T00:30:25.954Z,79.27
2022-08-16T00:31:10.198Z,79.17
2022-08-16T00:32:10.941Z,79.27
2022-08-16T00:33:09.134Z,79.27
2022-08-16T00:34:09.099Z,79.37
2022-08-16T00:35:15.625Z,79.47
2022-08-16T00:36:10.108Z,79.50
2022-08-16T00:37:09.087Z,79.61
2022-08-16T00:38:40.174Z,79.71
2022-08-16T00:39:10.057Z,79.81
2022-08-16T00:40:33.590Z,80.01
2022-08-16T00:41:10.250Z,79.81
2022-08-16T00:42:10.150Z,79.71
2022-08-16T00:43:12.078Z,79.81
2022-08-16T00:44:10.059Z,79.81
2022-08-16T00:45:09.464Z,80.01
2022-08-16T00:46:34.190Z,80.11
2022-08-16T00:47:09.958Z,80.21
2022-08-16T00:48:30.396Z,80.41
2022-08-16T00:49:17.432Z,81.01
2022-08-16T00:50:11.708Z,81.52
2022-08-16T00:51:08.993Z,81.72
2022-08-16T00:52:30.384Z,81.62
2022-08-16T00:53:09.883Z,81.92
2022-08-16T00:54:08.838Z,82.72
2022-08-16T00:55:08.937Z,83.43
2022-08-16T00:56:08.975Z,83.67
2022-08-16T00:57:09.795Z,83.87
2022-08-16T00:58:12.982Z,83.97
2022-08-16T00:59:09.777Z,83.97
2022-08-16T01:00:08.772Z,84.17
2022-08-16T01:01:08.931Z,84.27
2022-08-16T01:02:30.993Z,84.57
2022-08-16T01:03:11.737Z,84.97
2022-08-16T01:04:29.371Z,85.42
2022-08-16T01:05:11.474Z,85.62
2022-08-16T01:06:40.606Z,85.52
2022-08-16T01:07:09.699Z,85.22
2022-08-16T01:08:35.446Z,85.72
2022-08-16T01:09:09.643Z,85.72
2022-08-16T01:10:15.919Z,86.02
2022-08-16T01:11:09.659Z,86.02
2022-08-16T01:12:10.674Z,86.43
2022-08-16T01:13:08.649Z,86.32
2022-08-16T01:14:09.205Z,86.22
2022-08-16T01:15:08.593Z,86.22
2022-08-16T01:16:10.094Z,86.22
2022-08-16T01:17:08.596Z,86.22
2022-08-16T01:18:08.517Z,85.72
2022-08-16T01:19:09.529Z,85.42
2022-08-16T01:20:24.162Z,85.11
2022-08-16T01:21:09.459Z,84.91
2022-08-16T01:22:48.073Z,85.11
2022-08-16T01:23:09.485Z,85.08
2022-08-16T01:24:52.017Z,84.88
2022-08-16T01:25:09.457Z,84.47
2022-08-16T01:26:34.211Z,83.87
2022-08-16T01:27:09.414Z,83.57
2022-08-16T01:28:08.379Z,83.57
2022-08-16T01:29:09.859Z,83.47
2022-08-16T01:30:20.447Z,84.47
2022-08-16T01:31:09.339Z,84.67
2022-08-16T01:32:09.313Z,84.67
2022-08-16T01:33:15.466Z,84.77
2022-08-16T01:34:09.407Z,84.77
2022-08-16T01:35:09.331Z,84.88
2022-08-16T01:36:12.141Z,85.28
2022-08-16T01:37:08.311Z,85.38
2022-08-16T01:38:08.249Z,85.52
2022-08-16T01:39:11.764Z,85.62
2022-08-16T01:40:08.354Z,85.62
2022-08-16T01:41:08.240Z,85.62
2022-08-16T01:42:12.972Z,85.82
2022-08-16T01:43:09.563Z,86.12
2022-08-16T01:44:08.270Z,86.22
2022-08-16T01:45:08.163Z,86.43
2022-08-16T01:46:31.222Z,86.43
2022-08-16T01:47:09.169Z,86.52
2022-08-16T01:48:19.527Z,86.43
2022-08-16T01:49:09.159Z,86.43
2022-08-16T01:50:42.873Z,86.52
2022-08-16T01:51:17.088Z,86.32
2022-08-16T01:52:09.060Z,86.32
2022-08-16T01:53:10.055Z,86.63
2022-08-16T01:54:08.066Z,86.93
2022-08-16T01:55:08.034Z,86.93
2022-08-16T01:56:08.003Z,86.83
2022-08-16T01:57:09.082Z,86.83
2022-08-16T01:58:07.982Z,86.72
2022-08-16T01:59:08.021Z,86.43
2022-08-16T02:00:18.975Z,86.22
2022-08-16T02:01:09.003Z,86.12
2022-08-16T02:02:26.655Z,86.02
2022-08-16T02:03:12.569Z,86.02
2022-08-16T02:04:10.584Z,85.92
2022-08-16T02:05:07.900Z,86.02
2022-08-16T02:06:08.144Z,86.22
2022-08-16T02:07:07.865Z,86.02
2022-08-16T02:08:07.866Z,86.22
2022-08-16T02:09:11.770Z,86.63
2022-08-16T02:10:07.836Z,86.72
2022-08-16T02:11:07.810Z,86.72
2022-08-16T02:12:49.327Z,86.72
2022-08-16T02:13:08.774Z,87.02
2022-08-16T02:14:07.812Z,87.23
2022-08-16T02:15:08.757Z,87.63
2022-08-16T02:16:07.731Z,87.93
2022-08-16T02:17:08.740Z,88.03
2022-08-16T02:18:07.945Z,88.07
2022-08-16T02:19:16.510Z,87.98
2022-08-16T02:20:11.676Z,88.07
2022-08-16T02:21:07.804Z,88.18
2022-08-16T02:22:46.560Z,88.38
2022-08-16T02:23:08.691Z,88.48
2022-08-16T02:24:31.639Z,88.48
2022-08-16T02:25:10.082Z,88.38
2022-08-16T02:26:07.618Z,88.48
2022-08-16T02:27:07.583Z,88.38
2022-08-16T02:28:07.609Z,88.28
2022-08-16T02:29:07.607Z,88.18
2022-08-16T02:30:08.558Z,88.28
2022-08-16T02:31:07.621Z,88.68
2022-08-16T02:32:49.747Z,87.37
2022-08-16T02:33:08.804Z,86.97
2022-08-16T02:34:07.570Z,87.27
2022-08-16T02:35:07.510Z,88.18
2022-08-16T02:36:07.461Z,88.28
2022-08-16T02:37:08.492Z,88.28
2022-08-16T02:38:09.020Z,88.68
2022-08-16T02:39:07.426Z,88.88
2022-08-16T02:40:07.457Z,89.08
2022-08-16T02:41:09.871Z,89.08
2022-08-16T02:42:07.398Z,88.78
2022-08-16T02:43:07.381Z,88.48
2022-08-16T02:44:07.362Z,88.48
2022-08-16T02:45:07.601Z,88.38
2022-08-16T02:46:08.054Z,88.28
2022-08-16T02:47:07.340Z,88.28
2022-08-16T02:48:28.477Z,88.18
2022-08-16T02:50:25.862Z,87.87
2022-08-16T02:50:55.054Z,87.67
2022-08-16T02:51:11.113Z,87.57
2022-08-16T02:52:09.142Z,87.57
2022-08-16T02:53:07.264Z,87.77
2022-08-16T02:54:07.212Z,87.87
2022-08-16T02:55:07.242Z,88.07
2022-08-16T02:56:09.910Z,88.28
2022-08-16T02:57:07.184Z,88.22
2022-08-16T02:58:07.169Z,88.12
2022-08-16T02:59:11.440Z,88.12
2022-08-16T03:00:34.149Z,88.22
2022-08-16T03:01:08.241Z,88.32
2022-08-16T03:02:08.127Z,88.62
2022-08-16T03:03:10.380Z,88.92
2022-08-16T03:04:24.737Z,89.12
2022-08-16T03:05:08.092Z,89.23
2022-08-16T03:06:42.086Z,89.43
2022-08-16T03:07:08.068Z,89.43
2022-08-16T03:08:07.052Z,89.53
2022-08-16T03:09:13.136Z,89.53
2022-08-16T03:10:08.019Z,89.73
2022-08-16T03:11:17.895Z,89.93
2022-08-16T03:12:08.090Z,89.93
2022-08-16T03:13:12.521Z,90.03
2022-08-16T03:14:08.495Z,90.13
2022-08-16T03:15:06.943Z,90.23
2022-08-16T03:16:06.977Z,90.64
2022-08-16T03:17:08.014Z,90.23
2022-08-16T03:18:12.449Z,90.03
2022-08-16T03:19:07.923Z,90.03
2022-08-16T03:20:06.873Z,90.13
2022-08-16T03:21:07.915Z,90.03
2022-08-16T03:22:06.843Z,89.93
2022-08-16T03:23:06.862Z,89.83
2022-08-16T03:24:29.445Z,89.83
2022-08-16T03:25:07.805Z,89.93
2022-08-16T03:26:06.786Z,90.13
2022-08-16T03:27:06.819Z,90.13
2022-08-16T03:28:07.604Z,90.44
2022-08-16T03:29:06.824Z,90.73
2022-08-16T03:30:16.382Z,91.04
2022-08-16T03:31:07.725Z,91.08
2022-08-16T03:32:06.704Z,90.88
2022-08-16T03:33:07.627Z,90.78
2022-08-16T03:34:06.752Z,90.78
2022-08-16T03:35:06.676Z,90.58
2022-08-16T03:36:30.284Z,90.68
2022-08-16T03:37:07.682Z,90.78
2022-08-16T03:38:34.039Z,91.18
2022-08-16T03:39:14.797Z,91.28
2022-08-16T03:40:07.702Z,91.58
2022-08-16T03:41:14.377Z,91.69
2022-08-16T03:42:07.564Z,91.58
2022-08-16T03:43:20.501Z,91.49
2022-08-16T03:44:07.554Z,91.28
2022-08-16T03:45:06.517Z,91.38
2022-08-16T03:46:06.737Z,91.38
2022-08-16T03:47:10.146Z,92.19
2022-08-16T03:48:07.091Z,92.49
2022-08-16T03:49:06.484Z,92.49
2022-08-16T03:50:25.358Z,92.49
2022-08-16T03:51:07.465Z,92.59
2022-08-16T03:52:06.481Z,92.69
2022-08-16T03:53:06.442Z,92.49
2022-08-16T03:54:12.236Z,92.39
2022-08-16T03:55:10.477Z,92.29
2022-08-16T03:56:07.690Z,92.43
2022-08-16T03:57:11.330Z,92.54
2022-08-16T03:58:07.384Z,92.43
2022-08-16T03:59:06.346Z,92.54
2022-08-16T04:00:06.345Z,92.43
2022-08-16T04:01:06.404Z,92.43
2022-08-16T04:02:12.226Z,92.33
2022-08-16T04:03:08.548Z,92.54
2022-08-16T04:04:06.266Z,92.74
2022-08-16T04:05:06.271Z,92.83
2022-08-16T04:06:06.255Z,92.94
2022-08-16T04:07:07.257Z,92.94
2022-08-16T04:08:22.345Z,92.83
2022-08-16T04:09:07.213Z,90.22
2022-08-16T04:10:35.860Z,90.32
2022-08-16T04:11:07.267Z,90.01
2022-08-16T04:12:10.529Z,89.71
2022-08-16T04:13:20.488Z,89.31
2022-08-16T04:14:08.913Z,89.01
2022-08-16T04:15:07.846Z,88.90
2022-08-16T04:16:06.492Z,89.11
2022-08-16T04:17:06.088Z,89.67
2022-08-16T04:18:06.076Z,89.87
2022-08-16T04:19:06.068Z,89.47
2022-08-16T04:20:06.547Z,89.47
2022-08-16T04:21:07.067Z,89.57
2022-08-16T04:22:08.846Z,89.57
2022-08-16T04:23:06.317Z,89.17
2022-08-16T04:24:08.065Z,88.26
2022-08-16T04:25:05.986Z,87.85
2022-08-16T04:26:05.979Z,87.76
2022-08-16T04:27:08.904Z,87.96
2022-08-16T04:28:52.093Z,87.96
2022-08-16T04:29:21.645Z,88.06
2022-08-16T04:30:10.880Z,88.16
2022-08-16T04:31:07.347Z,88.26
2022-08-16T04:32:05.918Z,88.26
2022-08-16T04:33:05.886Z,88.16
2022-08-16T04:34:05.917Z,88.16
2022-08-16T04:35:09.378Z,88.26
2022-08-16T04:36:06.821Z,88.26
2022-08-16T04:37:05.850Z,88.16
2022-08-16T04:38:10.939Z,87.96
2022-08-16T04:39:06.786Z,88.02
2022-08-16T04:40:05.912Z,87.41
2022-08-16T04:41:05.756Z,87.51
2022-08-16T04:42:11.378Z,87.71
2022-08-16T04:43:06.800Z,87.37
2022-08-16T04:44:31.106Z,86.52
2022-08-16T04:45:06.822Z,86.22
2022-08-16T04:46:05.714Z,85.48
2022-08-16T04:47:21.586Z,84.94
2022-08-16T04:48:06.700Z,84.19
2022-08-16T04:49:05.735Z,82.98
2022-08-16T04:50:05.682Z,82.34
2022-08-16T04:51:11.521Z,81.54
2022-08-16T04:52:06.626Z,81.30
2022-08-16T04:53:06.634Z,81.20
2022-08-16T04:54:05.584Z,80.66
2022-08-16T04:55:05.620Z,80.36
2022-08-16T04:56:05.575Z,79.96
2022-08-16T04:57:06.565Z,79.52
2022-08-16T04:58:45.011Z,79.08
2022-08-16T04:59:06.568Z,78.58
2022-08-16T05:00:31.693Z,78.14
2022-08-16T05:01:08.051Z,77.24
2022-08-16T05:02:41.989Z,76.74
2022-08-16T05:03:07.654Z,75.93
2022-08-16T05:04:05.450Z,75.84
2022-08-16T05:05:06.462Z,76.57
2022-08-16T05:06:07.098Z,76.78
2022-08-16T05:07:05.454Z,76.57
2022-08-16T05:08:29.543Z,76.87
2022-08-16T05:09:06.500Z,76.98
2022-08-16T05:10:05.368Z,76.98
2022-08-16T05:11:08.286Z,76.67
2022-08-16T05:12:05.357Z,76.17
2022-08-16T05:13:05.349Z,76.24
2022-08-16T05:14:06.762Z,76.04
2022-08-16T05:15:05.309Z,75.74
2022-08-16T05:16:06.119Z,75.93
2022-08-16T05:17:05.390Z,75.56
2022-08-16T05:18:05.290Z,74.19
2022-08-16T05:19:05.296Z,72.92
2022-08-16T05:20:39.291Z,71.39
2022-08-16T05:21:09.705Z,70.46
2022-08-16T05:22:06.261Z,69.73
2022-08-16T05:23:06.349Z,68.90
2022-08-16T05:24:06.139Z,68.46
2022-08-16T05:25:09.242Z,67.96
2022-08-16T05:26:06.158Z,67.17
2022-08-16T05:27:11.081Z,67.10
2022-08-16T05:28:06.162Z,68.46
2022-08-16T05:29:05.153Z,69.16
2022-08-16T05:30:34.808Z,68.76
2022-08-16T05:31:06.834Z,68.43
2022-08-16T05:32:05.105Z,68.40
2022-08-16T05:33:06.063Z,67.96
2022-08-16T05:34:05.058Z,66.74
2022-08-16T05:35:06.072Z,66.04
2022-08-16T05:36:05.053Z,65.54
2022-08-16T05:37:06.048Z,65.84
2022-08-16T05:38:05.004Z,65.94
2022-08-16T05:39:06.024Z,66.24
2022-08-16T05:40:06.169Z,66.44
2022-08-16T05:41:05.024Z,66.67
2022-08-16T05:42:04.972Z,67.30
2022-08-16T05:43:04.975Z,67.50
2022-08-16T05:44:05.242Z,66.90
2022-08-16T05:45:06.919Z,67.10
2022-08-16T05:46:04.923Z,66.97
2022-08-16T05:47:06.105Z,66.34
2022-08-16T05:48:04.903Z,65.41
2022-08-16T05:49:08.521Z,65.18
2022-08-16T05:50:04.878Z,64.36
2022-08-16T05:51:04.850Z,63.92
2022-08-16T05:52:04.859Z,62.93
2022-08-16T05:53:05.861Z,62.50
2022-08-16T05:54:04.802Z,61.78
2022-08-16T05:55:04.826Z,60.96
2022-08-16T05:56:04.799Z,60.33
2022-08-16T05:57:04.784Z,60.13
2022-08-16T05:58:04.742Z,60.98
2022-08-16T05:59:06.531Z,62.53
2022-08-16T06:00:09.100Z,63.66
2022-08-16T06:01:04.777Z,64.06
2022-08-16T06:02:06.134Z,65.68
2022-08-16T06:03:04.707Z,65.61
2022-08-16T06:04:12.950Z,64.98
2022-08-16T06:05:05.688Z,64.39
2022-08-16T06:06:04.662Z,65.21
2022-08-16T06:07:06.835Z,65.21
2022-08-16T06:08:04.624Z,65.01
2022-08-16T06:09:04.612Z,64.58
2022-08-16T06:10:04.627Z,64.18
2022-08-16T06:11:11.119Z,62.63
2022-08-16T06:12:05.570Z,63.26
2022-08-16T06:13:04.619Z,63.06
2022-08-16T06:14:04.592Z,62.53
2022-08-16T06:15:07.985Z,61.91
2022-08-16T06:16:05.521Z,61.61
2022-08-16T06:17:05.580Z,61.61
2022-08-16T06:18:04.561Z,61.68
2022-08-16T06:19:04.804Z,60.96
2022-08-16T06:20:04.480Z,60.53
2022-08-16T06:21:04.458Z,59.61
2022-08-16T06:22:04.449Z,58.59
2022-08-16T06:23:11.740Z,58.78
2022-08-16T06:24:52.536Z,59.18
2022-08-16T06:25:05.443Z,58.69
2022-08-16T06:26:04.418Z,58.59
2022-08-16T06:27:04.442Z,57.76
2022-08-16T06:28:08.666Z,58.48
2022-08-16T06:29:05.413Z,58.48
2022-08-16T06:30:04.407Z,58.91
2022-08-16T06:31:04.726Z,58.98
2022-08-16T06:32:04.459Z,58.69
2022-08-16T06:33:04.383Z,57.97
2022-08-16T06:34:04.324Z,57.21
2022-08-16T06:35:05.332Z,56.59
2022-08-16T06:36:04.317Z,55.90
2022-08-16T06:37:04.314Z,55.87
2022-08-16T06:38:04.276Z,55.28
2022-08-16T06:39:06.095Z,54.96
2022-08-16T06:40:04.265Z,54.46
2022-08-16T06:41:04.290Z,53.85
2022-08-16T06:42:04.217Z,53.64
2022-08-16T06:43:04.490Z,54.59
2022-08-16T06:44:04.244Z,56.48
2022-08-16T06:45:04.398Z,58.42
2022-08-16T06:46:04.166Z,59.96
2022-08-16T06:47:04.168Z,61.01
2022-08-16T06:48:04.146Z,62.13
2022-08-16T06:49:05.420Z,63.19
2022-08-16T06:50:04.114Z,63.22
2022-08-16T06:51:04.140Z,63.58
2022-08-16T06:52:04.117Z,63.88
2022-08-16T06:53:06.779Z,64.67
2022-08-16T06:54:05.097Z,64.90
2022-08-16T06:55:04.049Z,65.20
2022-08-16T06:56:04.041Z,65.20
2022-08-16T06:57:04.062Z,65.57
2022-08-16T06:58:08.546Z,65.11
2022-08-16T06:59:04.989Z,65.11
2022-08-16T07:00:04.008Z,65.31
2022-08-16T07:01:09.883Z,65.31
2022-08-16T07:02:04.989Z,65.50
2022-08-16T07:03:26.841Z,66.00
2022-08-16T07:04:05.000Z,65.50
2022-08-16T07:05:14.965Z,65.64
2022-08-16T07:06:04.907Z,65.83
2022-08-16T07:07:03.931Z,66.03
2022-08-16T07:08:03.909Z,66.47
2022-08-16T07:09:09.782Z,67.07
2022-08-16T07:10:08.858Z,67.16
2022-08-16T07:11:03.860Z,67.26
2022-08-16T07:12:05.565Z,67.13
2022-08-16T07:13:11.823Z,66.73
2022-08-16T07:14:25.259Z,66.53
2022-08-16T07:15:04.830Z,66.43
2022-08-16T07:16:03.883Z,66.43
2022-08-16T07:17:08.478Z,66.73
2022-08-16T07:18:04.773Z,66.73
2022-08-16T07:19:03.831Z,66.53
2022-08-16T07:20:35.101Z,66.63
2022-08-16T07:21:04.706Z,66.63
2022-08-16T07:22:03.883Z,66.43
2022-08-16T07:23:04.198Z,66.53
2022-08-16T07:24:06.092Z,67.10
2022-08-16T07:25:03.700Z,66.10
2022-08-16T07:26:03.647Z,66.40
2022-08-16T07:27:03.653Z,66.50
2022-08-16T07:28:03.633Z,66.07
2022-08-16T07:29:03.634Z,65.67
2022-08-16T07:30:03.609Z,65.44
2022-08-16T07:31:03.634Z,65.34
2022-08-16T07:32:03.548Z,65.34
2022-08-16T07:33:03.552Z,65.05
2022-08-16T07:34:03.571Z,64.64
2022-08-16T07:35:04.621Z,64.54
2022-08-16T07:36:03.505Z,64.75
2022-08-16T07:37:03.514Z,64.51
2022-08-16T07:38:03.623Z,64.12
2022-08-16T07:39:03.509Z,64.31
2022-08-16T07:40:11.093Z,64.42
2022-08-16T07:41:09.559Z,64.09
2022-08-16T07:42:07.056Z,63.98
2022-08-16T07:43:03.473Z,64.09
2022-08-16T07:44:03.496Z,63.89
2022-08-16T07:45:10.069Z,63.89
2022-08-16T07:46:04.405Z,64.12
2022-08-16T07:47:03.470Z,64.09
2022-08-16T07:48:11.194Z,63.79
2022-08-16T07:49:04.421Z,63.76
2022-08-16T07:50:07.526Z,63.36
2022-08-16T07:51:06.884Z,62.63
2022-08-16T07:52:20.515Z,62.83
2022-08-16T07:53:04.339Z,63.53
2022-08-16T07:54:10.185Z,62.93
2022-08-16T07:55:04.258Z,63.26
2022-08-16T07:56:04.409Z,63.46
2022-08-16T07:57:03.234Z,63.66
2022-08-16T07:58:03.550Z,63.95
2022-08-16T07:59:03.266Z,63.76
2022-08-16T08:00:03.196Z,63.16
2022-08-16T08:01:03.220Z,63.16
2022-08-16T08:02:03.187Z,63.26
2022-08-16T08:03:03.208Z,63.56
2022-08-16T08:04:03.442Z,63.06
2022-08-16T08:05:03.498Z,63.03
2022-08-16T08:06:03.139Z,62.86
2022-08-16T08:07:03.867Z,63.26
2022-08-16T08:08:11.435Z,63.66
2022-08-16T08:09:04.100Z,63.46
2022-08-16T08:10:03.922Z,63.85
2022-08-16T08:11:09.353Z,63.85
2022-08-16T08:12:05.255Z,63.95
2022-08-16T08:13:03.056Z,63.36
2022-08-16T08:14:04.057Z,63.03
2022-08-16T08:15:03.026Z,63.63
2022-08-16T08:16:02.992Z,62.83
2022-08-16T08:17:03.069Z,62.73
2022-08-16T08:18:29.830Z,62.80
2022-08-16T08:19:03.954Z,62.70
2022-08-16T08:20:02.972Z,62.01
2022-08-16T08:21:02.940Z,61.61
2022-08-16T08:22:06.156Z,61.54
2022-08-16T08:23:02.913Z,61.64
2022-08-16T08:24:02.893Z,62.07
2022-08-16T08:25:03.987Z,63.06
2022-08-16T08:26:04.523Z,62.86
2022-08-16T08:27:04.257Z,62.96
2022-08-16T08:28:02.863Z,63.29
2022-08-16T08:29:02.865Z,63.79
2022-08-16T08:30:43.974Z,63.29
2022-08-16T08:31:04.009Z,63.29
2022-08-16T08:32:02.811Z,63.42
2022-08-16T08:33:04.102Z,63.32
2022-08-16T08:34:04.891Z,63.52
2022-08-16T08:35:03.542Z,63.52
2022-08-16T08:36:02.772Z,62.92
2022-08-16T08:37:02.712Z,62.62
2022-08-16T08:38:02.767Z,62.55
2022-08-16T08:39:02.727Z,62.55
2022-08-16T08:40:03.721Z,62.75
2022-08-16T08:41:02.651Z,63.12
2022-08-16T08:42:03.669Z,63.22
2022-08-16T08:43:12.628Z,63.72
2022-08-16T08:44:28.648Z,64.01
2022-08-16T08:45:03.725Z,63.52
2022-08-16T08:46:02.593Z,63.09
2022-08-16T08:47:07.916Z,62.49
2022-08-16T08:48:34.966Z,61.99
2022-08-16T08:49:03.570Z,61.96
2022-08-16T08:50:02.523Z,61.96
2022-08-16T08:51:23.147Z,61.67
2022-08-16T08:52:03.503Z,61.77
2022-08-16T08:53:03.493Z,61.37
2022-08-16T08:54:02.567Z,60.97
2022-08-16T08:55:02.600Z,61.17
2022-08-16T08:56:22.418Z,61.27
2022-08-16T08:57:03.569Z,61.17
2022-08-16T08:58:02.491Z,61.47
2022-08-16T08:59:12.741Z,61.64
2022-08-16T09:00:03.424Z,61.94
2022-08-16T09:01:03.477Z,62.04
2022-08-16T09:02:03.139Z,61.44
2022-08-16T09:03:04.549Z,61.44
2022-08-16T09:04:02.528Z,61.64
2022-08-16T09:05:02.462Z,61.64
2022-08-16T09:06:03.372Z,61.04
2022-08-16T09:07:02.328Z,61.44
2022-08-16T09:08:05.802Z,60.57
2022-08-16T09:09:02.335Z,60.84
2022-08-16T09:10:20.143Z,61.04
2022-08-16T09:11:03.380Z,61.34
2022-08-16T09:12:06.516Z,61.34
2022-08-16T09:13:02.249Z,61.64
2022-08-16T09:14:02.224Z,60.91
2022-08-16T09:15:02.192Z,59.82
2022-08-16T09:16:02.538Z,59.69
2022-08-16T09:17:14.016Z,59.69
2022-08-16T09:18:25.197Z,59.00
2022-08-16T09:19:04.088Z,59.49
2022-08-16T09:20:04.826Z,59.42
2022-08-16T09:21:02.208Z,59.72
2022-08-16T09:22:02.261Z,59.52
2022-08-16T09:23:02.128Z,59.42
2022-08-16T09:24:02.120Z,59.82
2022-08-16T09:25:09.901Z,59.22
2022-08-16T09:26:03.149Z,59.12
2022-08-16T09:27:03.051Z,59.00
2022-08-16T09:28:02.681Z,59.22
2022-08-16T09:29:15.862Z,59.32
2022-08-16T09:30:33.257Z,60.31
2022-08-16T09:31:03.097Z,59.32
2022-08-16T09:32:01.960Z,59.12
2022-08-16T09:33:01.957Z,59.52
2022-08-16T09:34:01.962Z,59.72
2022-08-16T09:35:12.601Z,59.72
2022-08-16T09:36:01.936Z,60.42
2022-08-16T09:37:01.920Z,59.52
2022-08-16T09:38:01.906Z,59.00
2022-08-16T09:39:02.099Z,59.00
2022-08-16T09:40:01.928Z,59.39
2022-08-16T09:41:02.036Z,58.50
2022-08-16T09:42:01.851Z,58.50
2022-08-16T09:43:02.052Z,58.70
2022-08-16T09:44:02.674Z,57.70
2022-08-16T09:45:10.846Z,58.10
2022-08-16T09:46:02.801Z,57.70
2022-08-16T09:47:01.801Z,57.87
2022-08-16T09:48:02.792Z,58.07
2022-08-16T09:49:03.343Z,57.98
2022-08-16T09:50:01.762Z,56.85
2022-08-16T09:51:01.815Z,55.96
2022-08-16T09:52:01.836Z,55.76
2022-08-16T09:53:01.728Z,56.85
2022-08-16T09:54:01.799Z,55.94
2022-08-16T09:55:01.702Z,55.54
2022-08-16T09:56:26.527Z,55.41
2022-08-16T09:57:01.641Z,55.81
2022-08-16T09:58:01.683Z,55.81
2022-08-16T10:00:42.677Z,55.34
2022-08-16T10:01:12.504Z,55.54
2022-08-16T10:02:27.131Z,55.91
2022-08-16T10:03:12.527Z,55.41
2022-08-16T10:04:34.250Z,55.39
2022-08-16T10:05:12.497Z,54.39
2022-08-16T10:06:11.453Z,55.19
2022-08-16T10:07:14.715Z,54.30
2022-08-16T10:08:26.793Z,54.79
2022-08-16T10:09:12.414Z,54.79
2022-08-16T10:10:11.918Z,54.92
2022-08-16T10:11:11.514Z,55.21
2022-08-16T10:12:19.428Z,55.21
2022-08-16T10:13:12.339Z,55.34
2022-08-16T10:14:11.367Z,54.82
2022-08-16T10:15:15.638Z,54.82
2022-08-16T10:17:11.331Z,55.44
2022-08-16T10:19:02.242Z,55.44
2022-08-16T10:19:12.246Z,55.54
2022-08-16T10:20:17.814Z,56.30
2022-08-16T10:21:12.278Z,55.04
2022-08-16T10:22:12.649Z,53.06
2022-08-16T10:23:17.176Z,53.75
2022-08-16T10:24:12.258Z,53.75
2022-08-16T10:25:12.193Z,54.22
2022-08-16T10:27:17.072Z,53.13
2022-08-16T10:27:25.177Z,53.23
2022-08-16T10:28:28.075Z,53.41
2022-08-16T10:29:12.225Z,53.43
2022-08-16T10:30:24.781Z,53.23
2022-08-16T10:31:16.715Z,53.23
2022-08-16T10:32:12.103Z,52.54
2022-08-16T10:33:12.110Z,52.94
2022-08-16T10:34:31.656Z,53.06
2022-08-16T10:35:12.084Z,53.16
2022-08-16T10:36:12.856Z,54.75
2022-08-16T10:37:12.106Z,54.22
2022-08-16T10:38:10.960Z,53.43
2022-08-16T10:39:12.139Z,53.53
2022-08-16T10:40:29.568Z,54.62
2022-08-16T10:41:15.974Z,54.32
2022-08-16T10:42:13.558Z,54.49
2022-08-16T10:43:18.551Z,53.50
2022-08-16T10:44:12.443Z,53.90
2022-08-16T10:45:12.004Z,54.00
2022-08-16T10:46:33.619Z,54.00
2022-08-16T10:47:11.864Z,54.00
2022-08-16T10:48:27.965Z,54.07
2022-08-16T10:49:11.823Z,53.67
2022-08-16T10:50:19.551Z,52.66
2022-08-16T10:51:11.847Z,52.17
2022-08-16T10:52:18.913Z,51.87
2022-08-16T10:53:11.812Z,51.15
2022-08-16T10:54:28.857Z,51.54
2022-08-16T10:56:56.147Z,51.84
2022-08-16T10:57:12.160Z,52.24
2022-08-16T10:58:11.562Z,51.75
2022-08-16T11:00:20.841Z,51.65
2022-08-16T11:01:39.849Z,50.85
2022-08-16T11:02:57.954Z,51.15
2022-08-16T11:05:11.879Z,51.45
2022-08-16T11:06:12.078Z,51.45
2022-08-16T11:08:11.573Z,52.66
2022-08-16T11:09:25.216Z,53.08
2022-08-16T11:11:19.153Z,51.99
2022-08-16T11:12:13.236Z,51.28
2022-08-16T11:14:11.914Z,51.67
2022-08-16T11:15:11.979Z,50.29
2022-08-16T11:16:26.919Z,50.48
2022-08-16T11:17:11.618Z,50.85
2022-08-16T11:19:03.130Z,50.46
2022-08-16T11:19:13.163Z,50.58
2022-08-16T11:21:29.075Z,51.05
2022-08-16T11:22:38.544Z,50.95
2022-08-16T11:23:11.526Z,50.34
2022-08-16T11:24:39.255Z,49.05
2022-08-16T11:25:12.275Z,48.46
2022-08-16T11:26:23.942Z,48.08
2022-08-16T11:27:20.574Z,48.77
2022-08-16T11:28:11.415Z,49.44
2022-08-16T11:29:13.278Z,49.25
2022-08-16T11:30:12.233Z,49.64
2022-08-16T11:31:11.292Z,49.64
2022-08-16T11:32:10.327Z,48.73
2022-08-16T11:33:10.721Z,48.73
2022-08-16T11:34:10.235Z,49.02
2022-08-16T11:35:14.916Z,48.53
2022-08-16T11:36:28.147Z,49.02
2022-08-16T11:37:19.375Z,48.93
2022-08-16T11:38:42.274Z,48.83
2022-08-16T11:39:11.163Z,49.02
2022-08-16T11:40:10.283Z,49.32
2022-08-16T11:41:10.327Z,49.22
2022-08-16T11:42:23.218Z,50.01
2022-08-16T11:43:11.110Z,49.44
2022-08-16T11:44:10.090Z,49.44
2022-08-16T11:45:11.096Z,49.32
2022-08-16T11:46:43.685Z,49.52
2022-08-16T11:47:11.112Z,48.53
2022-08-16T11:48:10.030Z,48.03
2022-08-16T11:49:13.687Z,47.25
2022-08-16T11:50:10.126Z,47.84
2022-08-16T11:51:10.006Z,48.43
2022-08-16T11:52:10.008Z,48.73
2022-08-16T11:53:10.062Z,48.93
2022-08-16T11:54:15.576Z,48.73
2022-08-16T11:55:11.153Z,48.63
2022-08-16T11:56:09.949Z,48.33
2022-08-16T11:57:11.002Z,48.16
2022-08-16T11:58:10.879Z,47.86
2022-08-16T11:59:10.060Z,48.16
2022-08-16T12:00:10.165Z,48.75
2022-08-16T12:01:10.915Z,48.24
2022-08-16T12:02:30.961Z,48.14
2022-08-16T12:03:10.843Z,48.14
2022-08-16T12:04:09.975Z,48.73
2022-08-16T12:05:10.087Z,48.63
2022-08-16T12:06:10.898Z,49.13
2022-08-16T12:07:09.780Z,49.02
2022-08-16T12:08:09.767Z,49.72
2022-08-16T12:09:10.078Z,49.42
2022-08-16T12:10:10.035Z,49.72
2022-08-16T12:11:09.751Z,49.30
2022-08-16T12:12:09.779Z,49.79
2022-08-16T12:13:10.331Z,49.60
2022-08-16T12:14:09.697Z,49.99
2022-08-16T12:15:09.922Z,49.01
2022-08-16T12:16:09.801Z,47.89
2022-08-16T12:17:09.693Z,47.50
2022-08-16T12:18:09.681Z,47.60
2022-08-16T12:19:10.489Z,47.20
2022-08-16T12:20:12.767Z,47.30
2022-08-16T12:21:09.846Z,48.41
2022-08-16T12:22:19.443Z,48.71
2022-08-16T12:23:10.680Z,49.02
2022-08-16T12:24:09.554Z,48.26
2022-08-16T12:25:09.594Z,48.65
2022-08-16T12:26:10.665Z,48.75
2022-08-16T12:27:09.585Z,49.42
2022-08-16T12:28:09.722Z,48.90
2022-08-16T12:29:09.547Z,48.58
2022-08-16T12:30:26.458Z,47.38
2022-08-16T12:31:10.559Z,47.16
2022-08-16T12:32:37.465Z,46.76
2022-08-16T12:33:10.496Z,46.66
2022-08-16T12:34:09.446Z,47.25
2022-08-16T12:35:10.459Z,46.76
2022-08-16T12:36:09.858Z,46.59
2022-08-16T12:37:11.835Z,46.39
2022-08-16T12:38:41.539Z,46.39
2022-08-16T12:39:10.579Z,47.10
2022-08-16T12:40:24.005Z,47.60
2022-08-16T12:41:10.329Z,48.78
2022-08-16T12:42:09.407Z,48.28
2022-08-16T12:43:09.370Z,47.40
2022-08-16T12:44:09.361Z,47.18
2022-08-16T12:45:09.460Z,46.29
2022-08-16T12:46:09.387Z,45.97
2022-08-16T12:47:09.287Z,45.48
2022-08-16T12:48:31.509Z,47.16
2022-08-16T12:49:10.272Z,45.87
2022-08-16T12:50:10.607Z,45.57
2022-08-16T12:51:13.701Z,45.57
2022-08-16T12:52:10.298Z,45.38
2022-08-16T12:53:10.209Z,44.69
2022-08-16T12:54:09.345Z,44.91
2022-08-16T12:55:09.207Z,44.32
2022-08-16T12:56:10.204Z,44.51
2022-08-16T12:57:13.984Z,45.50
2022-08-16T12:58:13.884Z,45.89
2022-08-16T12:59:11.521Z,46.29
2022-08-16T13:00:09.148Z,44.69
2022-08-16T13:01:09.446Z,45.18
2022-08-16T13:02:12.511Z,45.38